sensor_id;sensor_type;location;lat;lon;timestamp;temperature;humidity
10660;DHT22;5378;53.206;13.316;2023-03-12T00:02:27;3.10;99.90
10660;DHT22;5378;53.206;13.316;2023-03-12T00:05:14;3.10;99.90
10660;DHT22;5378;53.206;13.316;2023-03-12T00:08:01;3.20;99.90
10660;DHT22;5378;53.206;13.316;2023-03-12T00:10:48;3.10;99.90
10660;DHT22;5378;53.206;13.316;2023-03-12T00:13:36;3.10;99.90
10660;DHT22;5378;53.206;13.316;2023-03-12T00:16:24;3.00;99.90
10660;DHT22;5378;53.206;13.316;2023-03-12T00:19:11;3.00;99.90
10660;DHT22;5378;53.206;13.316;2023-03-12T00:21:59;3.00;99.90
10660;DHT22;5378;53.206;13.316;2023-03-12T00:24:49;3.00;99.90
10660;DHT22;5378;53.206;13.316;2023-03-12T00:27:36;3.00;99.90
10660;DHT22;5378;53.206;13.316;2023-03-12T00:30:25;3.00;99.90
10660;DHT22;5378;53.206;13.316;2023-03-12T00:33:13;3.10;99.90
10660;DHT22;5378;53.206;13.316;2023-03-12T00:36:00;3.10;99.90
10660;DHT22;5378;53.206;13.316;2023-03-12T00:38:47;3.20;99.90
10660;DHT22;5378;53.206;13.316;2023-03-12T00:41:34;3.20;99.90
10660;DHT22;5378;53.206;13.316;2023-03-12T00:44:21;3.20;99.90
10660;DHT22;5378;53.206;13.316;2023-03-12T00:47:10;3.30;99.90
10660;DHT22;5378;53.206;13.316;2023-03-12T00:49:58;3.20;99.90
10660;DHT22;5378;53.206;13.316;2023-03-12T00:52:46;3.20;99.90
10660;DHT22;5378;53.206;13.316;2023-03-12T00:55:33;3.00;99.90
10660;DHT22;5378;53.206;13.316;2023-03-12T00:58:20;3.10;99.90
10660;DHT22;5378;53.206;13.316;2023-03-12T01:01:08;3.10;99.90
10660;DHT22;5378;53.206;13.316;2023-03-12T01:03:56;3.00;99.90
10660;DHT22;5378;53.206;13.316;2023-03-12T01:06:44;2.90;99.90
10660;DHT22;5378;53.206;13.316;2023-03-12T01:09:31;2.90;99.90
10660;DHT22;5378;53.206;13.316;2023-03-12T01:12:19;2.90;99.90
10660;DHT22;5378;53.206;13.316;2023-03-12T01:15:07;2.90;99.90
10660;DHT22;5378;53.206;13.316;2023-03-12T01:17:54;3.10;99.90
10660;DHT22;5378;53.206;13.316;2023-03-12T01:20:43;3.00;99.90
10660;DHT22;5378;53.206;13.316;2023-03-12T01:23:31;3.00;99.90
10660;DHT22;5378;53.206;13.316;2023-03-12T01:26:18;3.10;99.90
10660;DHT22;5378;53.206;13.316;2023-03-12T01:29:06;3.20;99.90
10660;DHT22;5378;53.206;13.316;2023-03-12T01:31:53;3.10;99.90
10660;DHT22;5378;53.206;13.316;2023-03-12T01:34:40;3.20;99.90
10660;DHT22;5378;53.206;13.316;2023-03-12T01:37:28;3.10;99.90
10660;DHT22;5378;53.206;13.316;2023-03-12T01:40:18;3.00;99.90
10660;DHT22;5378;53.206;13.316;2023-03-12T01:43:24;2.90;99.90
10660;DHT22;5378;53.206;13.316;2023-03-12T01:46:23;2.90;99.90
10660;DHT22;5378;53.206;13.316;2023-03-12T01:49:14;2.80;99.90
10660;DHT22;5378;53.206;13.316;2023-03-12T01:52:04;2.80;99.90
10660;DHT22;5378;53.206;13.316;2023-03-12T01:55:03;2.90;99.90
10660;DHT22;5378;53.206;13.316;2023-03-12T01:57:55;2.90;99.90
10660;DHT22;5378;53.206;13.316;2023-03-12T02:00:43;2.80;99.90
10660;DHT22;5378;53.206;13.316;2023-03-12T02:03:31;2.70;99.90
10660;DHT22;5378;53.206;13.316;2023-03-12T02:06:23;2.70;99.90
10660;DHT22;5378;53.206;13.316;2023-03-12T02:09:12;2.70;99.90
10660;DHT22;5378;53.206;13.316;2023-03-12T02:12:01;2.50;99.90
10660;DHT22;5378;53.206;13.316;2023-03-12T02:14:48;2.40;99.90
10660;DHT22;5378;53.206;13.316;2023-03-12T02:17:37;2.30;99.90
10660;DHT22;5378;53.206;13.316;2023-03-12T02:20:30;2.30;99.90
10660;DHT22;5378;53.206;13.316;2023-03-12T02:23:25;2.10;99.90
10660;DHT22;5378;53.206;13.316;2023-03-12T02:26:15;2.10;99.90
10660;DHT22;5378;53.206;13.316;2023-03-12T02:29:03;2.00;99.90
10660;DHT22;5378;53.206;13.316;2023-03-12T02:31:53;1.90;99.90
10660;DHT22;5378;53.206;13.316;2023-03-12T02:34:41;1.80;99.90
10660;DHT22;5378;53.206;13.316;2023-03-12T02:37:28;1.80;99.90
10660;DHT22;5378;53.206;13.316;2023-03-12T02:40:20;1.70;99.90
10660;DHT22;5378;53.206;13.316;2023-03-12T02:43:10;1.70;99.90
10660;DHT22;5378;53.206;13.316;2023-03-12T02:45:58;1.60;99.90
10660;DHT22;5378;53.206;13.316;2023-03-12T02:48:45;1.50;99.90
10660;DHT22;5378;53.206;13.316;2023-03-12T02:51:31;1.50;99.90
10660;DHT22;5378;53.206;13.316;2023-03-12T02:54:20;1.50;99.90
10660;DHT22;5378;53.206;13.316;2023-03-12T02:57:08;1.50;99.90
10660;DHT22;5378;53.206;13.316;2023-03-12T02:59:56;1.40;99.90
10660;DHT22;5378;53.206;13.316;2023-03-12T03:02:44;1.30;99.90
10660;DHT22;5378;53.206;13.316;2023-03-12T03:05:31;1.30;99.90
10660;DHT22;5378;53.206;13.316;2023-03-12T03:08:19;1.30;99.90
10660;DHT22;5378;53.206;13.316;2023-03-12T03:11:07;1.30;99.90
10660;DHT22;5378;53.206;13.316;2023-03-12T03:13:54;1.30;99.90
10660;DHT22;5378;53.206;13.316;2023-03-12T03:16:43;1.30;99.90
10660;DHT22;5378;53.206;13.316;2023-03-12T03:19:30;1.30;99.90
10660;DHT22;5378;53.206;13.316;2023-03-12T03:22:17;1.30;99.90
10660;DHT22;5378;53.206;13.316;2023-03-12T03:25:07;1.20;99.90
10660;DHT22;5378;53.206;13.316;2023-03-12T03:27:55;1.20;99.90
10660;DHT22;5378;53.206;13.316;2023-03-12T03:30:42;1.20;99.90
10660;DHT22;5378;53.206;13.316;2023-03-12T03:33:32;1.10;99.90
10660;DHT22;5378;53.206;13.316;2023-03-12T03:36:20;1.10;99.90
10660;DHT22;5378;53.206;13.316;2023-03-12T03:39:22;1.10;99.90
10660;DHT22;5378;53.206;13.316;2023-03-12T03:42:10;1.00;99.90
10660;DHT22;5378;53.206;13.316;2023-03-12T03:44:57;0.90;99.90
10660;DHT22;5378;53.206;13.316;2023-03-12T03:47:45;0.90;99.90
10660;DHT22;5378;53.206;13.316;2023-03-12T03:50:33;0.90;99.90
10660;DHT22;5378;53.206;13.316;2023-03-12T03:53:21;0.80;99.90
10660;DHT22;5378;53.206;13.316;2023-03-12T03:56:10;0.90;99.90
10660;DHT22;5378;53.206;13.316;2023-03-12T03:59:00;0.90;99.90
10660;DHT22;5378;53.206;13.316;2023-03-12T04:01:49;0.80;99.90
10660;DHT22;5378;53.206;13.316;2023-03-12T04:04:36;0.80;99.90
10660;DHT22;5378;53.206;13.316;2023-03-12T04:07:26;0.80;99.90
10660;DHT22;5378;53.206;13.316;2023-03-12T04:10:14;0.80;99.90
10660;DHT22;5378;53.206;13.316;2023-03-12T04:13:01;0.70;99.90
10660;DHT22;5378;53.206;13.316;2023-03-12T04:15:53;0.70;99.90
10660;DHT22;5378;53.206;13.316;2023-03-12T04:18:40;0.70;99.90
10660;DHT22;5378;53.206;13.316;2023-03-12T04:21:28;0.60;99.90
10660;DHT22;5378;53.206;13.316;2023-03-12T04:24:16;0.60;99.90
10660;DHT22;5378;53.206;13.316;2023-03-12T04:27:06;0.60;99.90
10660;DHT22;5378;53.206;13.316;2023-03-12T04:29:53;0.60;99.90
10660;DHT22;5378;53.206;13.316;2023-03-12T04:32:41;0.60;99.90
10660;DHT22;5378;53.206;13.316;2023-03-12T04:35:28;0.60;99.90
10660;DHT22;5378;53.206;13.316;2023-03-12T04:38:15;0.70;99.90
10660;DHT22;5378;53.206;13.316;2023-03-12T04:41:06;0.70;99.90
10660;DHT22;5378;53.206;13.316;2023-03-12T04:43:56;0.60;99.90
10660;DHT22;5378;53.206;13.316;2023-03-12T04:46:43;0.60;99.90
10660;DHT22;5378;53.206;13.316;2023-03-12T04:49:36;0.50;99.90
10660;DHT22;5378;53.206;13.316;2023-03-12T04:52:25;0.50;99.90
10660;DHT22;5378;53.206;13.316;2023-03-12T04:55:12;0.50;99.90
10660;DHT22;5378;53.206;13.316;2023-03-12T04:58:00;0.50;99.90
10660;DHT22;5378;53.206;13.316;2023-03-12T05:00:49;0.50;99.90
10660;DHT22;5378;53.206;13.316;2023-03-12T05:03:37;0.50;99.90
10660;DHT22;5378;53.206;13.316;2023-03-12T05:06:24;0.50;99.90
10660;DHT22;5378;53.206;13.316;2023-03-12T05:09:14;0.40;99.90
10660;DHT22;5378;53.206;13.316;2023-03-12T05:12:01;0.40;99.90
10660;DHT22;5378;53.206;13.316;2023-03-12T05:14:51;0.40;99.90
10660;DHT22;5378;53.206;13.316;2023-03-12T05:17:38;0.30;99.90
10660;DHT22;5378;53.206;13.316;2023-03-12T05:20:26;0.30;99.90
10660;DHT22;5378;53.206;13.316;2023-03-12T05:23:14;0.30;99.90
10660;DHT22;5378;53.206;13.316;2023-03-12T05:26:01;0.40;99.90
10660;DHT22;5378;53.206;13.316;2023-03-12T05:28:48;0.40;99.90
10660;DHT22;5378;53.206;13.316;2023-03-12T05:31:38;0.40;99.90
10660;DHT22;5378;53.206;13.316;2023-03-12T05:34:27;0.40;99.90
10660;DHT22;5378;53.206;13.316;2023-03-12T05:37:15;0.40;99.90
10660;DHT22;5378;53.206;13.316;2023-03-12T05:40:08;0.40;99.90
10660;DHT22;5378;53.206;13.316;2023-03-12T05:42:55;0.30;99.90
10660;DHT22;5378;53.206;13.316;2023-03-12T05:45:44;0.40;99.90
10660;DHT22;5378;53.206;13.316;2023-03-12T05:48:33;0.50;99.90
10660;DHT22;5378;53.206;13.316;2023-03-12T05:51:21;0.50;99.90
10660;DHT22;5378;53.206;13.316;2023-03-12T05:54:08;0.50;99.90
10660;DHT22;5378;53.206;13.316;2023-03-12T05:56:55;0.50;99.90
10660;DHT22;5378;53.206;13.316;2023-03-12T05:59:44;0.60;99.90
10660;DHT22;5378;53.206;13.316;2023-03-12T06:02:32;0.60;99.90
10660;DHT22;5378;53.206;13.316;2023-03-12T06:05:20;0.60;99.90
10660;DHT22;5378;53.206;13.316;2023-03-12T06:08:07;0.70;99.90
10660;DHT22;5378;53.206;13.316;2023-03-12T06:10:55;0.70;99.90
10660;DHT22;5378;53.206;13.316;2023-03-12T06:13:42;0.90;99.90
10660;DHT22;5378;53.206;13.316;2023-03-12T06:16:30;0.90;99.90
10660;DHT22;5378;53.206;13.316;2023-03-12T06:19:17;0.90;99.90
10660;DHT22;5378;53.206;13.316;2023-03-12T06:22:08;1.00;99.90
10660;DHT22;5378;53.206;13.316;2023-03-12T06:24:55;1.00;99.90
10660;DHT22;5378;53.206;13.316;2023-03-12T06:27:42;1.10;99.90
10660;DHT22;5378;53.206;13.316;2023-03-12T06:30:29;1.10;99.90
10660;DHT22;5378;53.206;13.316;2023-03-12T06:33:17;1.10;99.90
10660;DHT22;5378;53.206;13.316;2023-03-12T06:36:06;1.10;99.90
10660;DHT22;5378;53.206;13.316;2023-03-12T06:38:54;1.20;99.90
10660;DHT22;5378;53.206;13.316;2023-03-12T06:41:42;1.20;99.90
10660;DHT22;5378;53.206;13.316;2023-03-12T06:44:29;1.40;99.90
10660;DHT22;5378;53.206;13.316;2023-03-12T06:47:16;1.50;99.90
10660;DHT22;5378;53.206;13.316;2023-03-12T06:50:03;1.50;99.90
10660;DHT22;5378;53.206;13.316;2023-03-12T06:52:51;1.60;99.90
10660;DHT22;5378;53.206;13.316;2023-03-12T06:55:39;1.70;99.90
10660;DHT22;5378;53.206;13.316;2023-03-12T06:58:26;1.70;99.90
10660;DHT22;5378;53.206;13.316;2023-03-12T07:01:13;1.90;99.90
10660;DHT22;5378;53.206;13.316;2023-03-12T07:04:00;1.90;99.90
10660;DHT22;5378;53.206;13.316;2023-03-12T07:06:47;1.90;99.90
10660;DHT22;5378;53.206;13.316;2023-03-12T07:09:36;2.00;99.90
10660;DHT22;5378;53.206;13.316;2023-03-12T07:12:24;2.00;99.90
10660;DHT22;5378;53.206;13.316;2023-03-12T07:15:12;2.00;99.90
10660;DHT22;5378;53.206;13.316;2023-03-12T07:17:59;2.00;99.90
10660;DHT22;5378;53.206;13.316;2023-03-12T07:20:46;2.10;99.90
10660;DHT22;5378;53.206;13.316;2023-03-12T07:23:33;2.10;99.90
10660;DHT22;5378;53.206;13.316;2023-03-12T07:26:20;2.20;99.90
10660;DHT22;5378;53.206;13.316;2023-03-12T07:29:08;2.30;99.90
10660;DHT22;5378;53.206;13.316;2023-03-12T07:31:56;2.40;99.90
10660;DHT22;5378;53.206;13.316;2023-03-12T07:34:43;2.90;99.90
10660;DHT22;5378;53.206;13.316;2023-03-12T07:37:30;3.40;99.90
10660;DHT22;5378;53.206;13.316;2023-03-12T07:40:17;3.50;99.90
10660;DHT22;5378;53.206;13.316;2023-03-12T07:43:05;3.60;99.90
10660;DHT22;5378;53.206;13.316;2023-03-12T07:45:58;3.50;99.90
10660;DHT22;5378;53.206;13.316;2023-03-12T07:48:45;4.10;99.90
10660;DHT22;5378;53.206;13.316;2023-03-12T07:51:33;5.30;99.90
10660;DHT22;5378;53.206;13.316;2023-03-12T07:54:20;6.60;99.90
10660;DHT22;5378;53.206;13.316;2023-03-12T07:57:10;7.80;99.90
10660;DHT22;5378;53.206;13.316;2023-03-12T07:59:57;9.10;99.90
10660;DHT22;5378;53.206;13.316;2023-03-12T08:02:45;9.80;99.90
10660;DHT22;5378;53.206;13.316;2023-03-12T08:05:32;9.70;99.90
10660;DHT22;5378;53.206;13.316;2023-03-12T08:08:19;9.20;99.90
10660;DHT22;5378;53.206;13.316;2023-03-12T08:11:07;9.00;99.90
10660;DHT22;5378;53.206;13.316;2023-03-12T08:13:55;8.70;99.90
10660;DHT22;5378;53.206;13.316;2023-03-12T08:16:41;8.60;99.90
10660;DHT22;5378;53.206;13.316;2023-03-12T08:19:30;9.40;99.90
10660;DHT22;5378;53.206;13.316;2023-03-12T08:22:17;10.40;99.90
10660;DHT22;5378;53.206;13.316;2023-03-12T08:25:05;10.90;99.90
10660;DHT22;5378;53.206;13.316;2023-03-12T08:27:53;11.00;99.90
10660;DHT22;5378;53.206;13.316;2023-03-12T08:30:45;10.90;99.90
10660;DHT22;5378;53.206;13.316;2023-03-12T08:33:32;11.10;99.90
10660;DHT22;5378;53.206;13.316;2023-03-12T08:36:20;11.60;99.90
10660;DHT22;5378;53.206;13.316;2023-03-12T08:39:07;11.90;99.90
10660;DHT22;5378;53.206;13.316;2023-03-12T08:41:54;12.40;99.90
10660;DHT22;5378;53.206;13.316;2023-03-12T08:44:41;12.90;99.40
10660;DHT22;5378;53.206;13.316;2023-03-12T08:47:28;12.60;99.40
10660;DHT22;5378;53.206;13.316;2023-03-12T08:50:16;11.90;99.80
10660;DHT22;5378;53.206;13.316;2023-03-12T08:53:04;11.00;99.90
10660;DHT22;5378;53.206;13.316;2023-03-12T08:55:52;10.20;99.90
10660;DHT22;5378;53.206;13.316;2023-03-12T08:58:39;9.50;99.90
10660;DHT22;5378;53.206;13.316;2023-03-12T09:01:26;9.10;99.90
10660;DHT22;5378;53.206;13.316;2023-03-12T09:04:14;8.80;99.90
10660;DHT22;5378;53.206;13.316;2023-03-12T09:07:01;8.60;99.90
10660;DHT22;5378;53.206;13.316;2023-03-12T09:09:49;8.40;99.90
10660;DHT22;5378;53.206;13.316;2023-03-12T09:12:36;8.20;99.90
10660;DHT22;5378;53.206;13.316;2023-03-12T09:15:23;8.10;99.90
10660;DHT22;5378;53.206;13.316;2023-03-12T09:18:10;7.90;99.90
10660;DHT22;5378;53.206;13.316;2023-03-12T09:20:57;7.80;99.90
10660;DHT22;5378;53.206;13.316;2023-03-12T09:23:44;7.80;99.90
10660;DHT22;5378;53.206;13.316;2023-03-12T09:26:33;7.80;99.90
10660;DHT22;5378;53.206;13.316;2023-03-12T09:29:20;7.90;99.90
10660;DHT22;5378;53.206;13.316;2023-03-12T09:32:08;7.90;99.90
10660;DHT22;5378;53.206;13.316;2023-03-12T09:34:55;8.00;99.90
10660;DHT22;5378;53.206;13.316;2023-03-12T09:37:42;8.00;99.90
10660;DHT22;5378;53.206;13.316;2023-03-12T09:40:31;8.10;99.90
10660;DHT22;5378;53.206;13.316;2023-03-12T09:43:25;8.30;99.90
10660;DHT22;5378;53.206;13.316;2023-03-12T09:46:20;8.50;99.90
10660;DHT22;5378;53.206;13.316;2023-03-12T09:49:14;8.50;99.90
10660;DHT22;5378;53.206;13.316;2023-03-12T09:52:12;8.50;99.90
10660;DHT22;5378;53.206;13.316;2023-03-12T09:55:06;8.50;99.90
10660;DHT22;5378;53.206;13.316;2023-03-12T09:57:55;8.30;99.90
10660;DHT22;5378;53.206;13.316;2023-03-12T10:00:45;8.10;99.90
10660;DHT22;5378;53.206;13.316;2023-03-12T10:03:51;7.90;99.90
10660;DHT22;5378;53.206;13.316;2023-03-12T10:06:44;7.90;99.90
10660;DHT22;5378;53.206;13.316;2023-03-12T10:09:53;7.80;99.90
10660;DHT22;5378;53.206;13.316;2023-03-12T10:13:03;7.80;99.90
10660;DHT22;5378;53.206;13.316;2023-03-12T10:16:05;7.90;99.90
10660;DHT22;5378;53.206;13.316;2023-03-12T10:19:16;7.70;99.90
10660;DHT22;5378;53.206;13.316;2023-03-12T10:22:14;7.90;99.90
10660;DHT22;5378;53.206;13.316;2023-03-12T10:25:07;8.00;99.90
10660;DHT22;5378;53.206;13.316;2023-03-12T10:28:05;8.20;99.90
10660;DHT22;5378;53.206;13.316;2023-03-12T10:31:01;8.20;99.90
10660;DHT22;5378;53.206;13.316;2023-03-12T10:33:51;8.10;99.90
10660;DHT22;5378;53.206;13.316;2023-03-12T10:36:41;8.20;99.90
10660;DHT22;5378;53.206;13.316;2023-03-12T10:39:28;8.30;99.90
10660;DHT22;5378;53.206;13.316;2023-03-12T10:42:17;8.50;99.90
10660;DHT22;5378;53.206;13.316;2023-03-12T10:45:18;8.50;99.90
10660;DHT22;5378;53.206;13.316;2023-03-12T10:48:09;8.30;99.90
10660;DHT22;5378;53.206;13.316;2023-03-12T10:51:02;8.20;99.90
10660;DHT22;5378;53.206;13.316;2023-03-12T10:53:50;8.10;99.90
10660;DHT22;5378;53.206;13.316;2023-03-12T10:56:47;8.10;99.90
10660;DHT22;5378;53.206;13.316;2023-03-12T10:59:37;8.00;99.90
10660;DHT22;5378;53.206;13.316;2023-03-12T11:02:30;7.80;99.90
10660;DHT22;5378;53.206;13.316;2023-03-12T11:05:21;7.70;99.90
10660;DHT22;5378;53.206;13.316;2023-03-12T11:08:19;7.40;99.90
10660;DHT22;5378;53.206;13.316;2023-03-12T11:11:09;7.30;99.90
10660;DHT22;5378;53.206;13.316;2023-03-12T11:14:06;7.40;99.90
10660;DHT22;5378;53.206;13.316;2023-03-12T11:16:54;7.50;99.90
10660;DHT22;5378;53.206;13.316;2023-03-12T11:19:41;7.80;99.90
10660;DHT22;5378;53.206;13.316;2023-03-12T11:22:32;7.80;99.90
10660;DHT22;5378;53.206;13.316;2023-03-12T11:25:23;7.80;99.90
10660;DHT22;5378;53.206;13.316;2023-03-12T11:28:16;7.70;99.90
10660;DHT22;5378;53.206;13.316;2023-03-12T11:31:10;7.60;99.90
10660;DHT22;5378;53.206;13.316;2023-03-12T11:34:05;7.50;99.90
10660;DHT22;5378;53.206;13.316;2023-03-12T11:37:02;7.40;99.90
10660;DHT22;5378;53.206;13.316;2023-03-12T11:40:01;7.40;99.90
10660;DHT22;5378;53.206;13.316;2023-03-12T11:43:13;7.20;99.90
10660;DHT22;5378;53.206;13.316;2023-03-12T11:46:21;7.30;99.90
10660;DHT22;5378;53.206;13.316;2023-03-12T11:49:20;7.50;99.90
10660;DHT22;5378;53.206;13.316;2023-03-12T11:52:16;7.50;99.90
10660;DHT22;5378;53.206;13.316;2023-03-12T11:55:15;7.60;99.90
10660;DHT22;5378;53.206;13.316;2023-03-12T11:58:24;7.60;99.90
10660;DHT22;5378;53.206;13.316;2023-03-12T12:01:17;7.70;99.90
10660;DHT22;5378;53.206;13.316;2023-03-12T12:04:32;7.90;99.90
10660;DHT22;5378;53.206;13.316;2023-03-12T12:07:34;7.90;99.90
10660;DHT22;5378;53.206;13.316;2023-03-12T12:10:32;7.90;99.90
10660;DHT22;5378;53.206;13.316;2023-03-12T12:13:26;8.10;99.90
10660;DHT22;5378;53.206;13.316;2023-03-12T12:16:38;8.10;99.90
10660;DHT22;5378;53.206;13.316;2023-03-12T12:19:38;8.10;99.90
10660;DHT22;5378;53.206;13.316;2023-03-12T12:22:35;8.20;99.90
10660;DHT22;5378;53.206;13.316;2023-03-12T12:25:45;8.10;99.90
10660;DHT22;5378;53.206;13.316;2023-03-12T12:28:48;8.10;99.90
10660;DHT22;5378;53.206;13.316;2023-03-12T12:31:44;8.10;99.90
10660;DHT22;5378;53.206;13.316;2023-03-12T12:34:51;8.10;99.90
10660;DHT22;5378;53.206;13.316;2023-03-12T12:37:45;8.10;99.90
10660;DHT22;5378;53.206;13.316;2023-03-12T12:40:39;8.20;99.90
10660;DHT22;5378;53.206;13.316;2023-03-12T12:43:29;8.20;99.90
10660;DHT22;5378;53.206;13.316;2023-03-12T12:46:19;8.20;99.90
10660;DHT22;5378;53.206;13.316;2023-03-12T12:49:11;8.20;99.90
10660;DHT22;5378;53.206;13.316;2023-03-12T12:52:02;8.20;99.90
10660;DHT22;5378;53.206;13.316;2023-03-12T12:54:55;8.40;99.90
10660;DHT22;5378;53.206;13.316;2023-03-12T12:57:49;8.50;99.90
10660;DHT22;5378;53.206;13.316;2023-03-12T13:00:49;8.40;99.90
10660;DHT22;5378;53.206;13.316;2023-03-12T13:03:37;8.30;99.90
10660;DHT22;5378;53.206;13.316;2023-03-12T13:06:27;8.40;99.90
10660;DHT22;5378;53.206;13.316;2023-03-12T13:09:19;8.50;99.90
10660;DHT22;5378;53.206;13.316;2023-03-12T13:12:12;8.30;99.90
10660;DHT22;5378;53.206;13.316;2023-03-12T13:15:31;8.30;99.90
10660;DHT22;5378;53.206;13.316;2023-03-12T13:18:21;8.20;99.90
10660;DHT22;5378;53.206;13.316;2023-03-12T13:21:17;8.00;99.90
10660;DHT22;5378;53.206;13.316;2023-03-12T13:24:15;8.00;99.90
10660;DHT22;5378;53.206;13.316;2023-03-12T13:27:11;8.10;99.90
10660;DHT22;5378;53.206;13.316;2023-03-12T13:33:43;8.00;99.90
10660;DHT22;5378;53.206;13.316;2023-03-12T13:36:35;8.00;99.90
10660;DHT22;5378;53.206;13.316;2023-03-12T13:39:28;8.00;99.90
10660;DHT22;5378;53.206;13.316;2023-03-12T13:42:35;7.90;99.90
10660;DHT22;5378;53.206;13.316;2023-03-12T13:45:28;7.70;99.90
10660;DHT22;5378;53.206;13.316;2023-03-12T13:48:18;7.80;99.90
10660;DHT22;5378;53.206;13.316;2023-03-12T13:51:11;7.80;99.90
10660;DHT22;5378;53.206;13.316;2023-03-12T13:54:02;7.50;99.90
10660;DHT22;5378;53.206;13.316;2023-03-12T13:56:58;7.30;99.90
10660;DHT22;5378;53.206;13.316;2023-03-12T13:59:48;7.40;99.90
10660;DHT22;5378;53.206;13.316;2023-03-12T14:02:41;7.40;99.90
10660;DHT22;5378;53.206;13.316;2023-03-12T14:05:33;7.40;99.90
10660;DHT22;5378;53.206;13.316;2023-03-12T14:11:55;7.40;99.90
10660;DHT22;5378;53.206;13.316;2023-03-12T14:15:03;7.30;99.90
10660;DHT22;5378;53.206;13.316;2023-03-12T14:17:56;7.40;99.90
10660;DHT22;5378;53.206;13.316;2023-03-12T14:20:51;7.40;99.90
10660;DHT22;5378;53.206;13.316;2023-03-12T14:23:44;7.40;99.90
10660;DHT22;5378;53.206;13.316;2023-03-12T14:26:34;7.40;99.90
10660;DHT22;5378;53.206;13.316;2023-03-12T14:29:25;7.50;99.90
10660;DHT22;5378;53.206;13.316;2023-03-12T14:32:17;7.40;99.90
10660;DHT22;5378;53.206;13.316;2023-03-12T14:35:16;7.50;99.90
10660;DHT22;5378;53.206;13.316;2023-03-12T14:38:08;7.40;99.90
10660;DHT22;5378;53.206;13.316;2023-03-12T14:41:01;7.50;99.90
10660;DHT22;5378;53.206;13.316;2023-03-12T14:43:50;7.50;99.90
10660;DHT22;5378;53.206;13.316;2023-03-12T14:46:45;7.30;99.90
10660;DHT22;5378;53.206;13.316;2023-03-12T14:49:38;7.20;99.90
10660;DHT22;5378;53.206;13.316;2023-03-12T14:52:28;7.00;99.90
10660;DHT22;5378;53.206;13.316;2023-03-12T14:55:19;6.90;99.90
10660;DHT22;5378;53.206;13.316;2023-03-12T14:58:15;6.50;99.90
10660;DHT22;5378;53.206;13.316;2023-03-12T15:01:04;6.40;99.90
10660;DHT22;5378;53.206;13.316;2023-03-12T15:03:55;6.40;99.90
10660;DHT22;5378;53.206;13.316;2023-03-12T15:06:44;6.40;99.90
10660;DHT22;5378;53.206;13.316;2023-03-12T15:09:34;6.40;99.90
10660;DHT22;5378;53.206;13.316;2023-03-12T15:12:23;6.40;99.90
10660;DHT22;5378;53.206;13.316;2023-03-12T15:15:28;6.30;99.90
10660;DHT22;5378;53.206;13.316;2023-03-12T15:18:19;6.30;99.90
10660;DHT22;5378;53.206;13.316;2023-03-12T15:21:07;6.20;99.90
10660;DHT22;5378;53.206;13.316;2023-03-12T15:23:54;6.20;99.90
10660;DHT22;5378;53.206;13.316;2023-03-12T15:26:43;6.30;99.90
10660;DHT22;5378;53.206;13.316;2023-03-12T15:29:30;6.30;99.90
10660;DHT22;5378;53.206;13.316;2023-03-12T15:32:18;6.30;99.90
10660;DHT22;5378;53.206;13.316;2023-03-12T15:35:12;6.10;99.90
10660;DHT22;5378;53.206;13.316;2023-03-12T15:37:59;6.00;99.90
10660;DHT22;5378;53.206;13.316;2023-03-12T15:40:50;5.80;99.90
10660;DHT22;5378;53.206;13.316;2023-03-12T15:43:42;5.60;99.90
10660;DHT22;5378;53.206;13.316;2023-03-12T15:46:30;5.70;99.90
10660;DHT22;5378;53.206;13.316;2023-03-12T15:49:22;5.80;99.90
10660;DHT22;5378;53.206;13.316;2023-03-12T15:52:29;5.70;99.90
10660;DHT22;5378;53.206;13.316;2023-03-12T15:55:22;5.70;99.90
10660;DHT22;5378;53.206;13.316;2023-03-12T15:58:23;5.50;99.90
10660;DHT22;5378;53.206;13.316;2023-03-12T16:01:13;5.40;99.90
10660;DHT22;5378;53.206;13.316;2023-03-12T16:04:00;5.40;99.90
10660;DHT22;5378;53.206;13.316;2023-03-12T16:06:48;5.40;99.90
10660;DHT22;5378;53.206;13.316;2023-03-12T16:09:37;5.40;99.90
10660;DHT22;5378;53.206;13.316;2023-03-12T16:12:25;5.30;99.90
10660;DHT22;5378;53.206;13.316;2023-03-12T16:15:14;5.30;99.90
10660;DHT22;5378;53.206;13.316;2023-03-12T16:18:03;5.30;99.90
10660;DHT22;5378;53.206;13.316;2023-03-12T16:20:52;5.30;99.90
10660;DHT22;5378;53.206;13.316;2023-03-12T16:23:39;5.40;99.90
10660;DHT22;5378;53.206;13.316;2023-03-12T16:26:26;5.40;99.90
10660;DHT22;5378;53.206;13.316;2023-03-12T16:29:15;5.40;99.90
10660;DHT22;5378;53.206;13.316;2023-03-12T16:32:09;5.30;99.90
10660;DHT22;5378;53.206;13.316;2023-03-12T16:34:58;5.30;99.90
10660;DHT22;5378;53.206;13.316;2023-03-12T16:37:45;5.20;99.90
10660;DHT22;5378;53.206;13.316;2023-03-12T16:40:34;5.20;99.90
10660;DHT22;5378;53.206;13.316;2023-03-12T16:43:24;5.00;99.90
10660;DHT22;5378;53.206;13.316;2023-03-12T16:46:15;4.80;99.90
10660;DHT22;5378;53.206;13.316;2023-03-12T16:49:04;4.80;99.90
10660;DHT22;5378;53.206;13.316;2023-03-12T16:51:53;4.80;99.90
10660;DHT22;5378;53.206;13.316;2023-03-12T16:54:40;4.90;99.90
10660;DHT22;5378;53.206;13.316;2023-03-12T16:57:31;4.80;99.90
10660;DHT22;5378;53.206;13.316;2023-03-12T17:00:21;4.80;99.90
10660;DHT22;5378;53.206;13.316;2023-03-12T17:03:16;4.70;99.90
10660;DHT22;5378;53.206;13.316;2023-03-12T17:06:05;4.60;99.90
10660;DHT22;5378;53.206;13.316;2023-03-12T17:08:54;4.60;99.90
10660;DHT22;5378;53.206;13.316;2023-03-12T17:11:41;4.50;99.90
10660;DHT22;5378;53.206;13.316;2023-03-12T17:14:29;4.50;99.90
10660;DHT22;5378;53.206;13.316;2023-03-12T17:17:17;4.40;99.90
10660;DHT22;5378;53.206;13.316;2023-03-12T17:20:05;4.20;99.90
10660;DHT22;5378;53.206;13.316;2023-03-12T17:22:55;4.20;99.90
10660;DHT22;5378;53.206;13.316;2023-03-12T17:25:43;4.10;99.90
10660;DHT22;5378;53.206;13.316;2023-03-12T17:28:31;4.10;99.90
10660;DHT22;5378;53.206;13.316;2023-03-12T17:31:18;4.00;99.90
10660;DHT22;5378;53.206;13.316;2023-03-12T17:34:06;4.00;99.90
10660;DHT22;5378;53.206;13.316;2023-03-12T17:36:53;4.10;99.90
10660;DHT22;5378;53.206;13.316;2023-03-12T17:39:40;4.10;99.90
10660;DHT22;5378;53.206;13.316;2023-03-12T17:42:28;4.00;99.90
10660;DHT22;5378;53.206;13.316;2023-03-12T17:45:16;3.90;99.90
10660;DHT22;5378;53.206;13.316;2023-03-12T17:48:04;3.90;99.90
10660;DHT22;5378;53.206;13.316;2023-03-12T17:50:51;3.80;99.90
10660;DHT22;5378;53.206;13.316;2023-03-12T17:53:38;3.80;99.90
10660;DHT22;5378;53.206;13.316;2023-03-12T17:56:27;3.90;99.90
10660;DHT22;5378;53.206;13.316;2023-03-12T17:59:15;3.90;99.90
10660;DHT22;5378;53.206;13.316;2023-03-12T18:02:03;4.00;99.90
10660;DHT22;5378;53.206;13.316;2023-03-12T18:04:50;4.00;99.90
10660;DHT22;5378;53.206;13.316;2023-03-12T18:07:37;4.10;99.90
10660;DHT22;5378;53.206;13.316;2023-03-12T18:10:24;4.10;99.90
10660;DHT22;5378;53.206;13.316;2023-03-12T18:13:12;4.00;99.90
10660;DHT22;5378;53.206;13.316;2023-03-12T18:16:00;4.00;99.90
10660;DHT22;5378;53.206;13.316;2023-03-12T18:18:47;4.00;99.90
10660;DHT22;5378;53.206;13.316;2023-03-12T18:21:36;3.90;99.90